createdAt,value
2023-05-19T00:01:01.884Z,1.80
2023-05-19T00:03:31.835Z,1.70
2023-05-19T00:06:03.505Z,1.60
2023-05-19T00:08:32.718Z,1.70
2023-05-19T00:11:01.519Z,2.20
2023-05-19T00:13:30.503Z,1.60
2023-05-19T00:15:59.010Z,1.80
2023-05-19T00:18:29.861Z,1.57
2023-05-19T00:20:57.959Z,2.33
2023-05-19T00:23:27.410Z,1.70
2023-05-19T00:25:55.524Z,1.37
2023-05-19T00:28:23.753Z,1.83
2023-05-19T00:30:52.222Z,2.17
2023-05-19T00:33:20.965Z,2.37
2023-05-19T00:35:49.244Z,1.73
2023-05-19T00:38:17.783Z,2.70
2023-05-19T00:40:47.298Z,1.67
2023-05-19T00:43:15.689Z,2.10
2023-05-19T00:45:43.831Z,2.37
2023-05-19T00:48:12.082Z,1.60
2023-05-19T00:50:41.520Z,1.70
2023-05-19T00:53:10.047Z,2.03
2023-05-19T00:55:40.518Z,2.03
2023-05-19T00:58:11.083Z,1.90
2023-05-19T01:00:39.932Z,1.53
2023-05-19T01:03:11.513Z,2.10
2023-05-19T01:05:44.791Z,2.10
2023-05-19T01:08:13.257Z,1.27
2023-05-19T01:10:42.488Z,1.63
2023-05-19T01:13:12.198Z,2.23
2023-05-19T01:15:53.808Z,1.47
2023-05-19T01:18:30.516Z,1.93
2023-05-19T01:21:13.903Z,2.40
2023-05-19T01:23:50.699Z,1.77
2023-05-19T01:26:44.723Z,2.03
2023-05-19T01:29:34.010Z,1.70
2023-05-19T01:32:05.772Z,2.43
2023-05-19T01:34:43.014Z,2.20
2023-05-19T01:37:12.378Z,1.80
2023-05-19T01:39:41.481Z,1.60
2023-05-19T01:42:10.672Z,2.03
2023-05-19T01:44:39.319Z,1.20
2023-05-19T01:47:09.419Z,1.67
2023-05-19T01:49:37.996Z,1.70
2023-05-19T01:52:06.691Z,1.70
2023-05-19T01:54:35.018Z,1.67
2023-05-19T01:57:12.795Z,2.07
2023-05-19T01:59:53.063Z,1.73
2023-05-19T02:02:42.049Z,2.13
2023-05-19T02:05:19.601Z,1.97
2023-05-19T02:07:58.418Z,2.10
2023-05-19T02:10:31.812Z,2.03
2023-05-19T02:13:05.398Z,1.50
2023-05-19T02:15:42.062Z,1.70
2023-05-19T02:18:12.624Z,1.63
2023-05-19T02:20:41.092Z,1.43
2023-05-19T02:23:09.324Z,1.40
2023-05-19T02:25:37.502Z,1.87
2023-05-19T02:28:07.460Z,1.87
2023-05-19T02:30:35.531Z,1.90
2023-05-19T02:33:06.426Z,1.90
2023-05-19T02:35:35.975Z,1.87
2023-05-19T02:38:04.043Z,2.87
2023-05-19T02:40:33.036Z,2.93
2023-05-19T02:43:01.741Z,2.00
2023-05-19T02:45:29.935Z,2.10
2023-05-19T02:48:00.323Z,2.50
2023-05-19T02:50:28.381Z,2.57
2023-05-19T02:52:57.891Z,2.20
2023-05-19T02:55:25.903Z,1.80
2023-05-19T02:57:53.963Z,2.23
2023-05-19T03:00:22.329Z,1.43
2023-05-19T03:02:52.951Z,2.20
2023-05-19T03:05:21.145Z,1.67
2023-05-19T03:07:49.233Z,1.67
2023-05-19T03:10:18.913Z,1.90
2023-05-19T03:12:46.995Z,1.57
2023-05-19T03:15:16.412Z,1.13
2023-05-19T03:17:44.555Z,1.70
2023-05-19T03:20:15.795Z,1.80
2023-05-19T03:22:43.981Z,1.83
2023-05-19T03:25:12.083Z,1.47
2023-05-19T03:27:41.800Z,2.43
2023-05-19T03:30:11.652Z,1.57
2023-05-19T03:32:52.781Z,2.00
2023-05-19T03:35:21.488Z,1.70
2023-05-19T03:37:49.587Z,1.87
2023-05-19T03:40:18.890Z,1.90
2023-05-19T03:42:48.607Z,2.43
2023-05-19T03:45:17.771Z,2.17
2023-05-19T03:47:48.240Z,1.57
2023-05-19T03:50:31.896Z,2.10
2023-05-19T03:53:13.818Z,1.63
2023-05-19T03:55:42.726Z,2.17
2023-05-19T03:58:14.607Z,2.03
2023-05-19T04:00:42.778Z,2.67
2023-05-19T04:03:10.968Z,1.83
2023-05-19T04:05:40.026Z,2.10
2023-05-19T04:08:08.149Z,2.10
2023-05-19T04:10:36.229Z,1.90
2023-05-19T04:13:04.383Z,1.70
2023-05-19T04:15:33.870Z,2.10
2023-05-19T04:18:02.014Z,1.77
2023-05-19T04:20:30.179Z,1.20
2023-05-19T04:22:58.427Z,1.97
2023-05-19T04:25:28.177Z,1.77
2023-05-19T04:27:57.747Z,2.00
2023-05-19T04:30:26.423Z,1.50
2023-05-19T04:32:58.123Z,2.80
2023-05-19T04:35:26.630Z,2.10
2023-05-19T04:37:55.667Z,1.90
2023-05-19T04:40:31.223Z,1.73
2023-05-19T04:43:02.273Z,2.20
2023-05-19T04:45:33.077Z,2.50
2023-05-19T04:48:04.415Z,1.77
2023-05-19T04:50:32.966Z,2.07
2023-05-19T04:53:01.816Z,1.83
2023-05-19T04:55:30.166Z,2.13
2023-05-19T04:57:59.368Z,2.57
2023-05-19T05:00:28.388Z,1.90
2023-05-19T05:03:00.625Z,1.83
2023-05-19T05:05:32.891Z,2.30
2023-05-19T05:08:02.072Z,1.37
2023-05-19T05:10:34.883Z,2.03
2023-05-19T05:13:03.647Z,2.10
2023-05-19T05:15:32.362Z,1.80
2023-05-19T05:18:03.279Z,1.97
2023-05-19T05:20:34.213Z,2.30
2023-05-19T05:23:03.163Z,1.30
2023-05-19T05:25:33.616Z,1.80
2023-05-19T05:28:05.350Z,1.60
2023-05-19T05:30:35.333Z,1.40
2023-05-19T05:33:04.251Z,1.53
2023-05-19T05:35:36.942Z,2.00
2023-05-19T05:38:06.815Z,1.10
2023-05-19T05:40:35.154Z,1.50
2023-05-19T05:43:04.869Z,1.07
2023-05-19T05:45:36.788Z,1.03
2023-05-19T05:48:05.714Z,1.27
2023-05-19T05:50:36.863Z,1.60
2023-05-19T05:53:07.707Z,1.23
2023-05-19T05:55:39.108Z,1.73
2023-05-19T05:58:11.426Z,1.20
2023-05-19T06:00:40.071Z,1.93
2023-05-19T06:03:09.921Z,1.50
2023-05-19T06:05:39.766Z,1.53
2023-05-19T06:08:07.985Z,2.33
2023-05-19T06:10:39.059Z,2.07
2023-05-19T06:13:09.573Z,1.80
2023-05-19T06:15:39.829Z,1.30
2023-05-19T06:18:18.344Z,2.00
2023-05-19T06:20:50.944Z,1.43
2023-05-19T06:23:19.537Z,1.63
2023-05-19T06:25:47.810Z,1.27
2023-05-19T06:28:16.046Z,1.20
2023-05-19T06:30:44.798Z,1.53
2023-05-19T06:33:22.499Z,1.50
2023-05-19T06:35:51.952Z,1.67
2023-05-19T06:38:21.828Z,1.87
2023-05-19T06:40:50.003Z,1.70
2023-05-19T06:43:18.195Z,1.30
2023-05-19T06:45:57.260Z,1.70
2023-05-19T06:48:27.294Z,2.07
2023-05-19T06:50:57.195Z,1.23
2023-05-19T06:53:26.171Z,1.60
2023-05-19T06:56:00.022Z,1.30
2023-05-19T06:58:32.641Z,1.30
2023-05-19T07:01:03.106Z,1.83
2023-05-19T07:03:36.682Z,1.30
2023-05-19T07:06:08.357Z,1.83
2023-05-19T07:08:37.860Z,1.80
2023-05-19T07:11:07.993Z,1.40
2023-05-19T07:13:36.292Z,1.87
2023-05-19T07:16:05.709Z,1.93
2023-05-19T07:18:35.480Z,2.80
2023-05-19T07:21:03.568Z,1.80
2023-05-19T07:23:34.076Z,1.70
2023-05-19T07:26:02.544Z,1.47
2023-05-19T07:28:30.760Z,1.30
2023-05-19T07:30:59.073Z,1.80
2023-05-19T07:33:27.726Z,1.57
2023-05-19T07:35:56.280Z,2.30
2023-05-19T07:38:24.421Z,1.77
2023-05-19T07:40:53.896Z,1.47
2023-05-19T07:43:22.018Z,2.03
2023-05-19T07:45:50.231Z,2.23
2023-05-19T07:48:18.915Z,2.20
2023-05-19T07:50:47.291Z,1.60
2023-05-19T07:53:15.580Z,1.80
2023-05-19T07:55:43.854Z,1.93
2023-05-19T07:58:13.511Z,2.00
2023-05-19T08:00:43.165Z,1.50
2023-05-19T08:03:11.600Z,2.37
2023-05-19T08:05:40.046Z,1.93
2023-05-19T08:08:08.363Z,1.57
2023-05-19T08:10:36.517Z,1.73
2023-05-19T08:13:05.284Z,1.70
2023-05-19T08:15:34.954Z,1.80
2023-05-19T08:18:03.215Z,2.20
2023-05-19T08:20:31.669Z,1.90
2023-05-19T08:22:59.997Z,2.07
2023-05-19T08:25:28.624Z,2.00
2023-05-19T08:27:56.713Z,1.90
2023-05-19T08:30:25.642Z,2.23
2023-05-19T08:32:55.319Z,1.80
2023-05-19T08:35:23.620Z,2.20
2023-05-19T08:37:51.765Z,1.67
2023-05-19T08:40:20.056Z,1.70
2023-05-19T08:42:48.954Z,1.60
2023-05-19T08:45:18.841Z,1.40
2023-05-19T08:47:47.996Z,2.07
2023-05-19T08:50:22.832Z,1.83
2023-05-19T08:52:54.080Z,1.37
2023-05-19T08:55:34.519Z,1.57
2023-05-19T08:58:04.569Z,2.13
2023-05-19T09:00:34.001Z,1.90
2023-05-19T09:03:17.396Z,1.83
2023-05-19T09:05:48.092Z,1.60
2023-05-19T09:08:16.671Z,1.83
2023-05-19T09:10:44.944Z,1.30
2023-05-19T09:13:13.096Z,1.80
2023-05-19T09:15:43.579Z,1.37
2023-05-19T09:18:13.041Z,1.90
2023-05-19T09:20:42.661Z,1.33
2023-05-19T09:23:16.532Z,1.33
2023-05-19T09:25:49.719Z,1.17
2023-05-19T09:28:25.411Z,1.80
2023-05-19T09:31:01.502Z,1.40
2023-05-19T09:33:31.369Z,1.70
2023-05-19T09:35:59.701Z,1.57
2023-05-19T09:38:29.479Z,1.50
2023-05-19T09:40:59.612Z,1.67
2023-05-19T09:43:29.146Z,1.30
2023-05-19T09:46:01.399Z,1.47
2023-05-19T09:48:30.495Z,1.17
2023-05-19T09:50:59.218Z,1.23
2023-05-19T09:53:32.621Z,1.00
2023-05-19T09:56:03.694Z,1.80
2023-05-19T09:58:35.331Z,1.50
2023-05-19T10:01:05.130Z,1.50
2023-05-19T10:03:34.606Z,1.30
2023-05-19T10:06:05.032Z,1.80
2023-05-19T10:08:36.026Z,1.10
2023-05-19T10:11:04.861Z,1.73
2023-05-19T10:13:36.268Z,1.60
2023-05-19T10:16:04.736Z,2.10
2023-05-19T10:18:37.463Z,1.10
2023-05-19T10:21:08.893Z,1.10
2023-05-19T10:23:38.564Z,1.80
2023-05-19T10:26:07.703Z,1.27
2023-05-19T10:28:39.042Z,1.70
2023-05-19T10:31:11.006Z,1.73
2023-05-19T10:33:57.935Z,1.40
2023-05-19T10:36:40.097Z,2.00
2023-05-19T10:39:17.747Z,1.53
2023-05-19T10:42:00.544Z,1.47
2023-05-19T10:44:41.682Z,1.07
2023-05-19T10:47:11.995Z,1.40
2023-05-19T10:49:41.139Z,1.43
2023-05-19T10:52:21.800Z,1.30
2023-05-19T10:54:51.494Z,1.33
2023-05-19T10:57:21.728Z,1.43
2023-05-19T10:59:50.009Z,1.60
2023-05-19T11:02:41.379Z,1.67
2023-05-19T11:05:10.694Z,1.10
2023-05-19T11:07:42.413Z,1.33
2023-05-19T11:10:12.706Z,1.80
2023-05-19T11:12:46.115Z,1.30
2023-05-19T11:15:15.983Z,1.20
2023-05-19T11:17:48.450Z,1.13
2023-05-19T11:20:23.778Z,1.27
2023-05-19T11:23:08.412Z,1.50
2023-05-19T11:25:49.297Z,1.67
2023-05-19T11:28:19.529Z,1.13
2023-05-19T11:30:50.733Z,2.83
2023-05-19T11:33:20.366Z,1.20
2023-05-19T11:35:51.208Z,1.10
2023-05-19T11:38:20.479Z,1.17
2023-05-19T11:40:50.312Z,1.40
2023-05-19T11:43:18.378Z,1.50
2023-05-19T11:45:46.941Z,1.20
2023-05-19T11:48:17.408Z,1.17
2023-05-19T11:50:46.801Z,1.43
2023-05-19T11:53:15.279Z,1.87
2023-05-19T11:55:44.673Z,1.80
2023-05-19T11:58:15.860Z,1.03
2023-05-19T12:00:47.713Z,1.37
2023-05-19T12:03:17.413Z,0.83
2023-05-19T12:05:49.368Z,1.10
2023-05-19T12:08:18.725Z,1.57
2023-05-19T12:10:50.426Z,1.20
2023-05-19T12:13:22.599Z,1.20
2023-05-19T12:15:52.258Z,1.40
2023-05-19T12:18:20.780Z,1.27
2023-05-19T12:20:49.141Z,1.30
2023-05-19T12:23:17.376Z,1.40
2023-05-19T12:25:45.557Z,1.60
2023-05-19T12:28:13.663Z,1.37
2023-05-19T12:30:49.048Z,1.77
2023-05-19T12:33:17.162Z,1.13
2023-05-19T12:35:46.201Z,6.33
2023-05-19T12:38:15.855Z,1.47
2023-05-19T12:40:45.041Z,3.70
2023-05-19T12:43:21.171Z,2.40
2023-05-19T12:45:50.704Z,1.40
2023-05-19T12:48:22.565Z,2.10
2023-05-19T12:50:53.290Z,1.80
2023-05-19T12:53:22.549Z,1.57
2023-05-19T12:55:54.399Z,1.80
2023-05-19T12:58:23.327Z,1.20
2023-05-19T13:01:00.010Z,2.00
2023-05-19T13:03:28.400Z,1.83
2023-05-19T13:05:56.733Z,1.57
2023-05-19T13:08:25.661Z,1.60
2023-05-19T13:10:54.407Z,1.30
2023-05-19T13:13:22.688Z,1.17
2023-05-19T13:15:52.170Z,1.50
2023-05-19T13:18:20.274Z,1.93
2023-05-19T13:20:50.210Z,1.30
2023-05-19T13:23:18.741Z,1.37
2023-05-19T13:25:47.079Z,0.83
2023-05-19T13:28:15.343Z,1.60
2023-05-19T13:30:45.688Z,1.33
2023-05-19T13:33:15.304Z,1.27
2023-05-19T13:35:43.619Z,1.53
2023-05-19T13:38:12.000Z,1.13
2023-05-19T13:40:40.629Z,1.43
2023-05-19T13:43:09.828Z,2.53
2023-05-19T13:45:38.622Z,1.67
2023-05-19T13:48:08.204Z,1.63
2023-05-19T13:50:37.829Z,1.40
2023-05-19T13:53:06.084Z,1.90
2023-05-19T13:55:34.839Z,2.20
2023-05-19T13:58:03.497Z,1.87
2023-05-19T14:00:33.444Z,1.80
2023-05-19T14:03:01.849Z,3.47
2023-05-19T14:05:31.258Z,3.60
2023-05-19T14:08:01.352Z,8.43
2023-05-19T14:10:29.732Z,4.47
2023-05-19T14:15:38.086Z,1.83
2023-05-19T14:18:07.397Z,1.87
2023-05-19T14:20:36.065Z,1.57
2023-05-19T14:23:05.906Z,1.53
2023-05-19T14:25:34.075Z,2.07
2023-05-19T14:28:02.696Z,2.20
2023-05-19T14:30:30.998Z,2.30
2023-05-19T14:32:59.117Z,2.70
2023-05-19T14:35:27.399Z,2.00
2023-05-19T14:37:55.584Z,2.30
2023-05-19T14:40:25.094Z,3.10
2023-05-19T14:42:53.252Z,2.67
2023-05-19T14:45:21.417Z,2.40
2023-05-19T14:47:49.638Z,2.63
2023-05-19T14:50:18.172Z,4.87
2023-05-19T14:52:46.233Z,4.77
2023-05-19T14:55:14.404Z,2.30
2023-05-19T14:57:43.842Z,3.90
2023-05-19T15:00:12.810Z,8.60
2023-05-19T15:02:41.091Z,4.37
2023-05-19T15:05:09.963Z,3.30
2023-05-19T15:07:38.077Z,7.50
2023-05-19T15:10:07.323Z,2.40
2023-05-19T15:12:35.446Z,2.90
2023-05-19T15:15:05.670Z,2.77
2023-05-19T15:17:33.819Z,2.40
2023-05-19T15:20:02.476Z,1.77
2023-05-19T15:22:30.677Z,2.20
2023-05-19T15:24:59.357Z,1.90
2023-05-19T15:27:27.594Z,3.10
2023-05-19T15:29:56.222Z,2.37
2023-05-19T15:32:25.643Z,2.90
2023-05-19T15:34:53.900Z,2.00
2023-05-19T15:37:21.953Z,2.10
2023-05-19T15:39:50.169Z,2.50
2023-05-19T15:42:18.159Z,2.00
2023-05-19T15:44:47.029Z,2.13
2023-05-19T15:47:15.094Z,2.50
2023-05-19T15:49:44.580Z,3.43
2023-05-19T15:52:12.704Z,3.27
2023-05-19T15:54:40.962Z,2.20
2023-05-19T15:57:09.324Z,3.70
2023-05-19T15:59:37.505Z,3.03
2023-05-19T16:02:05.900Z,2.60
2023-05-19T16:04:34.435Z,2.43
2023-05-19T16:07:03.794Z,2.53
2023-05-19T16:09:31.833Z,2.60
2023-05-19T16:12:00.056Z,2.90
2023-05-19T16:14:31.054Z,9.53
2023-05-19T16:16:59.850Z,10.67
2023-05-19T16:19:27.994Z,6.30
2023-05-19T16:21:56.146Z,3.80
2023-05-19T16:24:25.637Z,3.10
2023-05-19T16:26:54.027Z,3.37
2023-05-19T16:29:22.364Z,3.00
2023-05-19T16:31:50.527Z,3.83
2023-05-19T16:34:19.798Z,2.60
2023-05-19T16:36:47.877Z,3.07
2023-05-19T16:39:15.987Z,4.60
2023-05-19T16:41:45.564Z,4.80
2023-05-19T16:44:14.644Z,5.10
2023-05-19T16:46:42.941Z,12.07
2023-05-19T16:49:11.224Z,6.30
2023-05-19T16:51:39.508Z,3.73
2023-05-19T16:54:07.703Z,3.60
2023-05-19T16:56:36.056Z,6.00
2023-05-19T16:59:05.704Z,5.33
2023-05-19T17:01:34.125Z,5.30
2023-05-19T17:04:02.236Z,3.90
2023-05-19T17:06:31.217Z,4.70
2023-05-19T17:08:59.301Z,7.27
2023-05-19T17:11:27.884Z,4.80
2023-05-19T17:13:57.054Z,3.87
2023-05-19T17:16:26.726Z,3.90
2023-05-19T17:18:54.865Z,3.37
2023-05-19T17:21:22.847Z,3.30
2023-05-19T17:23:51.311Z,3.70
2023-05-19T17:26:19.450Z,3.30
2023-05-19T17:28:48.786Z,5.50
2023-05-19T17:31:17.007Z,4.80
2023-05-19T17:33:46.542Z,3.67
2023-05-19T17:36:15.557Z,3.90
2023-05-19T17:38:44.077Z,4.33
2023-05-19T17:41:14.828Z,4.03
2023-05-19T17:43:43.406Z,5.07
2023-05-19T17:46:11.800Z,3.70
2023-05-19T17:48:40.713Z,4.10
2023-05-19T17:51:10.233Z,5.80
2023-05-19T17:53:39.034Z,2.60
2023-05-19T17:56:10.108Z,2.50
2023-05-19T17:58:39.454Z,3.37
2023-05-19T18:01:08.058Z,3.50
2023-05-19T18:03:36.853Z,3.33
2023-05-19T18:06:06.035Z,4.43
2023-05-19T18:08:37.637Z,3.37
2023-05-19T18:11:05.848Z,3.53
2023-05-19T18:13:33.927Z,3.30
2023-05-19T18:16:01.964Z,3.30
2023-05-19T18:18:30.135Z,4.13
2023-05-19T18:20:58.239Z,3.27
2023-05-19T18:23:26.380Z,3.20
2023-05-19T18:25:55.826Z,2.83
2023-05-19T18:28:24.930Z,3.67
2023-05-19T18:31:00.411Z,3.03
2023-05-19T18:33:30.039Z,3.43
2023-05-19T18:35:59.304Z,3.83
2023-05-19T18:38:27.525Z,2.70
2023-05-19T18:40:57.726Z,3.47
2023-05-19T18:43:26.006Z,4.07
2023-05-19T18:45:54.133Z,3.80
2023-05-19T18:48:22.725Z,4.27
2023-05-19T18:50:50.924Z,3.30
2023-05-19T18:53:19.030Z,3.97
2023-05-19T18:55:47.106Z,3.57
2023-05-19T18:58:16.495Z,3.90
2023-05-19T19:00:44.666Z,3.40
2023-05-19T19:03:13.260Z,3.50
2023-05-19T19:05:41.251Z,4.20
2023-05-19T19:08:09.301Z,3.37
2023-05-19T19:10:40.287Z,4.40
2023-05-19T19:13:08.388Z,4.90
2023-05-19T19:15:39.657Z,4.43
2023-05-19T19:18:08.361Z,4.70
2023-05-19T19:20:36.601Z,4.37
2023-05-19T19:23:06.672Z,4.50
2023-05-19T19:25:35.024Z,4.80
2023-05-19T19:28:03.646Z,4.50
2023-05-19T19:30:32.470Z,3.23
2023-05-19T19:33:03.101Z,4.67
2023-05-19T19:35:32.811Z,4.70
2023-05-19T19:38:00.894Z,4.47
2023-05-19T19:40:29.354Z,3.07
2023-05-19T19:42:57.657Z,4.00
2023-05-19T19:45:25.775Z,3.47
2023-05-19T19:47:54.094Z,3.40
2023-05-19T19:50:23.733Z,4.13
2023-05-19T19:52:51.934Z,3.83
2023-05-19T19:55:20.074Z,3.93
2023-05-19T19:57:49.574Z,3.57
2023-05-19T20:00:18.630Z,3.53
2023-05-19T20:03:03.829Z,3.20
2023-05-19T20:05:34.386Z,3.97
2023-05-19T20:08:02.491Z,3.50
2023-05-19T20:10:31.040Z,3.70
2023-05-19T20:12:59.513Z,3.07
2023-05-19T20:15:27.678Z,2.90
2023-05-19T20:17:55.753Z,3.13
2023-05-19T20:20:23.926Z,3.63
2023-05-19T20:22:53.416Z,3.60
2023-05-19T20:25:21.810Z,3.63
2023-05-19T20:27:49.899Z,3.47
2023-05-19T20:30:18.188Z,3.57
2023-05-19T20:32:47.058Z,3.10
2023-05-19T20:35:15.523Z,3.30
2023-05-19T20:37:43.668Z,2.90
2023-05-19T20:40:13.737Z,2.70
2023-05-19T20:42:41.917Z,3.17
2023-05-19T20:45:10.618Z,3.07
2023-05-19T20:47:38.961Z,3.60
2023-05-19T20:50:08.305Z,3.10
2023-05-19T20:52:37.090Z,3.57
2023-05-19T20:55:05.699Z,3.37
2023-05-19T20:57:35.870Z,2.80
2023-05-19T21:00:04.311Z,2.80
2023-05-19T21:02:32.654Z,2.50
2023-05-19T21:05:01.096Z,2.87
2023-05-19T21:07:29.178Z,2.93
2023-05-19T21:09:57.850Z,3.67
2023-05-19T21:12:28.678Z,3.37
2023-05-19T21:14:58.133Z,3.13
2023-05-19T21:17:26.207Z,3.43
2023-05-19T21:19:57.746Z,3.07
2023-05-19T21:22:26.121Z,3.00
2023-05-19T21:24:54.411Z,3.43
2023-05-19T21:27:22.755Z,2.83
2023-05-19T21:29:53.299Z,3.13
2023-05-19T21:32:23.667Z,3.20
2023-05-19T21:34:51.796Z,2.53
2023-05-19T21:37:21.094Z,2.77
2023-05-19T21:39:49.372Z,3.60
2023-05-19T21:42:17.544Z,2.40
2023-05-19T21:44:46.929Z,2.67
2023-05-19T21:47:15.080Z,3.20
2023-05-19T21:49:44.639Z,2.80
2023-05-19T21:52:12.751Z,3.30
2023-05-19T21:54:40.813Z,3.30
2023-05-19T21:57:11.088Z,3.13
2023-05-19T21:59:39.274Z,3.13
2023-05-19T22:02:07.617Z,3.57
2023-05-19T22:04:37.073Z,3.00
2023-05-19T22:07:06.903Z,3.17
2023-05-19T22:09:35.080Z,3.77
2023-05-19T22:12:03.168Z,2.97
2023-05-19T22:14:31.276Z,3.20
2023-05-19T22:16:59.318Z,3.73
2023-05-19T22:19:27.934Z,3.63
2023-05-19T22:22:09.666Z,3.40
2023-05-19T22:24:42.624Z,3.97
2023-05-19T22:27:11.047Z,4.30
2023-05-19T22:29:39.370Z,4.90
2023-05-19T22:32:12.254Z,4.67
2023-05-19T22:34:40.823Z,5.13
2023-05-19T22:37:09.024Z,3.70
2023-05-19T22:39:37.649Z,4.67
2023-05-19T22:42:07.415Z,4.43
2023-05-19T22:44:36.155Z,4.90
2023-05-19T22:47:04.673Z,5.53
2023-05-19T22:49:32.726Z,4.33
2023-05-19T22:52:00.962Z,5.10
2023-05-19T22:54:29.022Z,5.83
2023-05-19T22:56:57.121Z,5.40
2023-05-19T22:59:26.614Z,5.67
2023-05-19T23:01:54.799Z,5.90
2023-05-19T23:04:23.280Z,4.60
2023-05-19T23:06:51.868Z,5.77
2023-05-19T23:09:20.143Z,4.90
2023-05-19T23:11:48.557Z,5.03
2023-05-19T23:14:18.540Z,5.60
2023-05-19T23:16:48.089Z,6.40
2023-05-19T23:19:17.120Z,5.63
2023-05-19T23:21:45.995Z,6.87
2023-05-19T23:24:14.176Z,6.63
2023-05-19T23:26:43.893Z,6.80
2023-05-19T23:29:13.415Z,6.57
2023-05-19T23:31:41.949Z,7.97
2023-05-19T23:34:11.606Z,8.67
2023-05-19T23:36:39.772Z,8.77
2023-05-19T23:39:07.998Z,6.80
2023-05-19T23:41:36.958Z,6.93
2023-05-19T23:44:05.239Z,6.97
2023-05-19T23:46:33.432Z,8.53
2023-05-19T23:49:01.801Z,7.43
2023-05-19T23:51:31.323Z,7.20
2023-05-19T23:53:59.839Z,7.90
2023-05-19T23:56:28.107Z,7.60
2023-05-19T23:58:56.193Z,8.63
